sensor_id;sensor_type;location;lat;lon;timestamp;P1;durP1;ratioP1;P2;durP2;ratioP2
47287;SDS011;33020;53.008;13.558;2023-03-02T00:01:35;9.03;;;5.97;;
47287;SDS011;33020;53.008;13.558;2023-03-02T00:04:05;8.85;;;4.90;;
47287;SDS011;33020;53.008;13.558;2023-03-02T00:06:34;11.10;;;6.20;;
47287;SDS011;33020;53.008;13.558;2023-03-02T00:09:04;12.57;;;7.20;;
47287;SDS011;33020;53.008;13.558;2023-03-02T00:11:32;13.23;;;7.50;;
47287;SDS011;33020;53.008;13.558;2023-03-02T00:13:59;13.33;;;7.03;;
47287;SDS011;33020;53.008;13.558;2023-03-02T00:16:26;16.90;;;8.87;;
47287;SDS011;33020;53.008;13.558;2023-03-02T00:18:53;18.03;;;8.57;;
47287;SDS011;33020;53.008;13.558;2023-03-02T00:21:20;13.27;;;7.73;;
47287;SDS011;33020;53.008;13.558;2023-03-02T00:23:49;13.50;;;7.53;;
47287;SDS011;33020;53.008;13.558;2023-03-02T00:26:17;14.27;;;8.20;;
47287;SDS011;33020;53.008;13.558;2023-03-02T00:28:44;13.90;;;8.07;;
47287;SDS011;33020;53.008;13.558;2023-03-02T00:31:11;13.37;;;6.77;;
47287;SDS011;33020;53.008;13.558;2023-03-02T00:33:38;12.30;;;6.97;;
47287;SDS011;33020;53.008;13.558;2023-03-02T00:36:05;11.93;;;7.50;;
47287;SDS011;33020;53.008;13.558;2023-03-02T00:38:32;14.83;;;7.70;;
47287;SDS011;33020;53.008;13.558;2023-03-02T00:40:58;16.93;;;8.63;;
47287;SDS011;33020;53.008;13.558;2023-03-02T00:43:25;15.87;;;8.40;;
47287;SDS011;33020;53.008;13.558;2023-03-02T00:45:55;21.57;;;9.63;;
47287;SDS011;33020;53.008;13.558;2023-03-02T00:48:26;21.00;;;10.70;;
47287;SDS011;33020;53.008;13.558;2023-03-02T00:50:53;23.13;;;10.97;;
47287;SDS011;33020;53.008;13.558;2023-03-02T00:53:19;19.10;;;11.13;;
47287;SDS011;33020;53.008;13.558;2023-03-02T00:55:53;17.63;;;9.77;;
47287;SDS011;33020;53.008;13.558;2023-03-02T00:58:25;13.77;;;7.10;;
47287;SDS011;33020;53.008;13.558;2023-03-02T01:00:57;11.37;;;7.03;;
47287;SDS011;33020;53.008;13.558;2023-03-02T01:03:24;12.70;;;7.70;;
47287;SDS011;33020;53.008;13.558;2023-03-02T01:05:51;18.43;;;8.03;;
47287;SDS011;33020;53.008;13.558;2023-03-02T01:08:21;12.50;;;7.13;;
47287;SDS011;33020;53.008;13.558;2023-03-02T01:10:48;14.80;;;7.73;;
47287;SDS011;33020;53.008;13.558;2023-03-02T01:13:15;14.50;;;8.47;;
47287;SDS011;33020;53.008;13.558;2023-03-02T01:15:42;16.57;;;9.30;;
47287;SDS011;33020;53.008;13.558;2023-03-02T01:18:09;14.27;;;7.97;;
47287;SDS011;33020;53.008;13.558;2023-03-02T01:20:37;17.40;;;8.20;;
47287;SDS011;33020;53.008;13.558;2023-03-02T01:23:04;14.93;;;7.70;;
47287;SDS011;33020;53.008;13.558;2023-03-02T01:25:30;10.57;;;6.53;;
47287;SDS011;33020;53.008;13.558;2023-03-02T01:27:57;11.27;;;7.47;;
47287;SDS011;33020;53.008;13.558;2023-03-02T01:30:24;14.50;;;7.43;;
47287;SDS011;33020;53.008;13.558;2023-03-02T01:32:51;11.70;;;6.73;;
47287;SDS011;33020;53.008;13.558;2023-03-02T01:35:17;14.80;;;7.93;;
47287;SDS011;33020;53.008;13.558;2023-03-02T01:37:44;13.63;;;7.80;;
47287;SDS011;33020;53.008;13.558;2023-03-02T01:40:12;14.60;;;7.80;;
47287;SDS011;33020;53.008;13.558;2023-03-02T01:42:39;16.77;;;9.23;;
47287;SDS011;33020;53.008;13.558;2023-03-02T01:48:10;15.37;;;6.90;;
47287;SDS011;33020;53.008;13.558;2023-03-02T01:50:38;13.27;;;6.57;;
47287;SDS011;33020;53.008;13.558;2023-03-02T01:53:05;13.93;;;6.30;;
47287;SDS011;33020;53.008;13.558;2023-03-02T01:55:32;9.83;;;6.83;;
47287;SDS011;33020;53.008;13.558;2023-03-02T01:58:00;13.40;;;6.40;;
47287;SDS011;33020;53.008;13.558;2023-03-02T02:00:29;10.57;;;5.70;;
47287;SDS011;33020;53.008;13.558;2023-03-02T02:02:59;14.23;;;7.37;;
47287;SDS011;33020;53.008;13.558;2023-03-02T02:05:37;10.13;;;5.77;;
47287;SDS011;33020;53.008;13.558;2023-03-02T02:08:06;11.37;;;6.60;;
47287;SDS011;33020;53.008;13.558;2023-03-02T02:10:33;15.37;;;8.63;;
47287;SDS011;33020;53.008;13.558;2023-03-02T02:13:00;15.77;;;8.77;;
47287;SDS011;33020;53.008;13.558;2023-03-02T02:15:27;25.00;;;12.90;;
47287;SDS011;33020;53.008;13.558;2023-03-02T02:17:53;19.40;;;9.50;;
47287;SDS011;33020;53.008;13.558;2023-03-02T02:20:29;43.30;;;14.53;;
47287;SDS011;33020;53.008;13.558;2023-03-02T02:23:05;36.63;;;17.00;;
47287;SDS011;33020;53.008;13.558;2023-03-02T02:28:19;35.37;;;17.00;;
47287;SDS011;33020;53.008;13.558;2023-03-02T02:30:49;40.67;;;19.13;;
47287;SDS011;33020;53.008;13.558;2023-03-02T02:33:27;32.60;;;17.10;;
47287;SDS011;33020;53.008;13.558;2023-03-02T02:35:54;33.70;;;17.57;;
47287;SDS011;33020;53.008;13.558;2023-03-02T02:38:25;37.03;;;18.27;;
47287;SDS011;33020;53.008;13.558;2023-03-02T02:40:52;32.60;;;18.20;;
47287;SDS011;33020;53.008;13.558;2023-03-02T02:43:21;34.60;;;18.20;;
47287;SDS011;33020;53.008;13.558;2023-03-02T02:45:50;35.40;;;17.57;;
47287;SDS011;33020;53.008;13.558;2023-03-02T02:48:19;40.57;;;19.47;;
47287;SDS011;33020;53.008;13.558;2023-03-02T02:50:48;32.23;;;16.93;;
47287;SDS011;33020;53.008;13.558;2023-03-02T02:53:17;38.27;;;19.10;;
47287;SDS011;33020;53.008;13.558;2023-03-02T02:55:46;36.00;;;18.67;;
47287;SDS011;33020;53.008;13.558;2023-03-02T03:00:50;32.20;;;17.73;;
47287;SDS011;33020;53.008;13.558;2023-03-02T03:03:26;37.00;;;17.17;;
47287;SDS011;33020;53.008;13.558;2023-03-02T03:05:55;34.63;;;17.53;;
47287;SDS011;33020;53.008;13.558;2023-03-02T03:11:09;34.67;;;17.43;;
47287;SDS011;33020;53.008;13.558;2023-03-02T03:13:40;42.13;;;19.00;;
47287;SDS011;33020;53.008;13.558;2023-03-02T03:16:09;36.07;;;17.93;;
47287;SDS011;33020;53.008;13.558;2023-03-02T03:18:37;42.50;;;17.17;;
47287;SDS011;33020;53.008;13.558;2023-03-02T03:21:04;38.23;;;18.10;;
47287;SDS011;33020;53.008;13.558;2023-03-02T03:23:31;42.77;;;18.67;;
47287;SDS011;33020;53.008;13.558;2023-03-02T03:25:58;38.33;;;17.23;;
47287;SDS011;33020;53.008;13.558;2023-03-02T03:28:27;34.57;;;19.17;;
47287;SDS011;33020;53.008;13.558;2023-03-02T03:30:53;39.73;;;19.13;;
47287;SDS011;33020;53.008;13.558;2023-03-02T03:33:21;40.77;;;18.00;;
47287;SDS011;33020;53.008;13.558;2023-03-02T03:35:48;42.47;;;18.63;;
47287;SDS011;33020;53.008;13.558;2023-03-02T03:38:15;36.70;;;17.63;;
47287;SDS011;33020;53.008;13.558;2023-03-02T03:40:42;53.13;;;20.27;;
47287;SDS011;33020;53.008;13.558;2023-03-02T03:43:08;43.47;;;20.13;;
47287;SDS011;33020;53.008;13.558;2023-03-02T03:45:37;43.07;;;21.30;;
47287;SDS011;33020;53.008;13.558;2023-03-02T03:48:04;44.37;;;20.03;;
47287;SDS011;33020;53.008;13.558;2023-03-02T03:50:31;36.83;;;18.70;;
47287;SDS011;33020;53.008;13.558;2023-03-02T03:52:58;43.27;;;19.20;;
47287;SDS011;33020;53.008;13.558;2023-03-02T03:55:24;41.20;;;17.97;;
47287;SDS011;33020;53.008;13.558;2023-03-02T03:57:53;42.30;;;18.73;;
47287;SDS011;33020;53.008;13.558;2023-03-02T04:00:21;41.03;;;18.40;;
47287;SDS011;33020;53.008;13.558;2023-03-02T04:02:48;36.07;;;17.93;;
47287;SDS011;33020;53.008;13.558;2023-03-02T04:05:16;36.13;;;18.17;;
47287;SDS011;33020;53.008;13.558;2023-03-02T04:07:42;37.00;;;18.53;;
47287;SDS011;33020;53.008;13.558;2023-03-02T04:10:09;39.73;;;17.93;;
47287;SDS011;33020;53.008;13.558;2023-03-02T04:12:38;41.83;;;19.43;;
47287;SDS011;33020;53.008;13.558;2023-03-02T04:15:07;39.10;;;17.63;;
47287;SDS011;33020;53.008;13.558;2023-03-02T04:17:34;37.70;;;17.73;;
47287;SDS011;33020;53.008;13.558;2023-03-02T04:20:02;37.47;;;16.70;;
47287;SDS011;33020;53.008;13.558;2023-03-02T04:22:32;31.70;;;16.37;;
47287;SDS011;33020;53.008;13.558;2023-03-02T04:24:59;33.40;;;17.47;;
47287;SDS011;33020;53.008;13.558;2023-03-02T04:27:26;37.87;;;17.73;;
47287;SDS011;33020;53.008;13.558;2023-03-02T04:29:52;36.80;;;17.03;;
47287;SDS011;33020;53.008;13.558;2023-03-02T04:32:19;35.80;;;17.60;;
47287;SDS011;33020;53.008;13.558;2023-03-02T04:34:46;39.27;;;17.47;;
47287;SDS011;33020;53.008;13.558;2023-03-02T04:37:12;37.70;;;18.20;;
47287;SDS011;33020;53.008;13.558;2023-03-02T04:39:41;33.83;;;16.63;;
47287;SDS011;33020;53.008;13.558;2023-03-02T04:42:08;32.30;;;16.63;;
47287;SDS011;33020;53.008;13.558;2023-03-02T04:44:35;35.93;;;17.00;;
47287;SDS011;33020;53.008;13.558;2023-03-02T04:47:01;34.20;;;17.37;;
47287;SDS011;33020;53.008;13.558;2023-03-02T04:49:28;30.33;;;15.70;;
47287;SDS011;33020;53.008;13.558;2023-03-02T04:51:55;35.50;;;17.67;;
47287;SDS011;33020;53.008;13.558;2023-03-02T04:54:23;33.03;;;16.87;;
47287;SDS011;33020;53.008;13.558;2023-03-02T04:56:51;31.90;;;16.73;;
47287;SDS011;33020;53.008;13.558;2023-03-02T04:59:19;31.87;;;15.27;;
47287;SDS011;33020;53.008;13.558;2023-03-02T05:01:49;30.00;;;15.63;;
47287;SDS011;33020;53.008;13.558;2023-03-02T05:04:16;31.70;;;15.40;;
47287;SDS011;33020;53.008;13.558;2023-03-02T05:06:44;32.47;;;17.17;;
47287;SDS011;33020;53.008;13.558;2023-03-02T05:09:12;35.43;;;17.03;;
47287;SDS011;33020;53.008;13.558;2023-03-02T05:11:39;32.80;;;17.07;;
47287;SDS011;33020;53.008;13.558;2023-03-02T05:14:07;36.47;;;17.10;;
47287;SDS011;33020;53.008;13.558;2023-03-02T05:16:36;35.47;;;16.67;;
47287;SDS011;33020;53.008;13.558;2023-03-02T05:19:04;29.13;;;14.63;;
47287;SDS011;33020;53.008;13.558;2023-03-02T05:21:32;30.93;;;16.67;;
47287;SDS011;33020;53.008;13.558;2023-03-02T05:23:59;28.83;;;15.40;;
47287;SDS011;33020;53.008;13.558;2023-03-02T05:26:26;33.10;;;15.57;;
47287;SDS011;33020;53.008;13.558;2023-03-02T05:28:54;32.93;;;15.77;;
47287;SDS011;33020;53.008;13.558;2023-03-02T05:31:22;31.53;;;15.80;;
47287;SDS011;33020;53.008;13.558;2023-03-02T05:33:51;30.17;;;15.57;;
47287;SDS011;33020;53.008;13.558;2023-03-02T05:36:19;29.60;;;15.93;;
47287;SDS011;33020;53.008;13.558;2023-03-02T05:38:48;31.33;;;16.27;;
47287;SDS011;33020;53.008;13.558;2023-03-02T05:41:15;31.63;;;15.27;;
47287;SDS011;33020;53.008;13.558;2023-03-02T05:43:42;31.00;;;15.20;;
47287;SDS011;33020;53.008;13.558;2023-03-02T05:46:08;26.63;;;13.10;;
47287;SDS011;33020;53.008;13.558;2023-03-02T05:48:35;28.17;;;13.93;;
47287;SDS011;33020;53.008;13.558;2023-03-02T05:51:02;26.47;;;13.27;;
47287;SDS011;33020;53.008;13.558;2023-03-02T05:53:29;26.53;;;12.57;;
47287;SDS011;33020;53.008;13.558;2023-03-02T05:55:56;21.13;;;12.40;;
47287;SDS011;33020;53.008;13.558;2023-03-02T05:58:22;21.77;;;11.80;;
47287;SDS011;33020;53.008;13.558;2023-03-02T06:00:49;22.87;;;11.50;;
47287;SDS011;33020;53.008;13.558;2023-03-02T06:03:16;22.23;;;12.00;;
47287;SDS011;33020;53.008;13.558;2023-03-02T06:05:43;23.53;;;11.67;;
47287;SDS011;33020;53.008;13.558;2023-03-02T06:08:10;19.70;;;10.60;;
47287;SDS011;33020;53.008;13.558;2023-03-02T06:10:37;15.77;;;8.57;;
47287;SDS011;33020;53.008;13.558;2023-03-02T06:13:03;20.83;;;9.43;;
47287;SDS011;33020;53.008;13.558;2023-03-02T06:15:30;17.30;;;8.23;;
47287;SDS011;33020;53.008;13.558;2023-03-02T06:17:57;14.37;;;7.87;;
47287;SDS011;33020;53.008;13.558;2023-03-02T06:20:23;17.60;;;7.70;;
47287;SDS011;33020;53.008;13.558;2023-03-02T06:22:51;11.60;;;6.77;;
47287;SDS011;33020;53.008;13.558;2023-03-02T06:25:21;12.07;;;5.57;;
47287;SDS011;33020;53.008;13.558;2023-03-02T06:27:49;14.80;;;6.80;;
47287;SDS011;33020;53.008;13.558;2023-03-02T06:30:20;11.47;;;6.57;;
47287;SDS011;33020;53.008;13.558;2023-03-02T06:32:49;11.50;;;6.17;;
47287;SDS011;33020;53.008;13.558;2023-03-02T06:35:16;12.57;;;6.70;;
47287;SDS011;33020;53.008;13.558;2023-03-02T06:37:43;14.30;;;6.43;;
47287;SDS011;33020;53.008;13.558;2023-03-02T06:40:10;15.53;;;6.53;;
47287;SDS011;33020;53.008;13.558;2023-03-02T06:42:39;13.57;;;6.47;;
47287;SDS011;33020;53.008;13.558;2023-03-02T06:45:07;14.57;;;6.53;;
47287;SDS011;33020;53.008;13.558;2023-03-02T06:47:35;13.97;;;6.77;;
47287;SDS011;33020;53.008;13.558;2023-03-02T06:50:02;10.60;;;6.13;;
47287;SDS011;33020;53.008;13.558;2023-03-02T06:52:29;15.27;;;6.50;;
47287;SDS011;33020;53.008;13.558;2023-03-02T06:54:55;13.30;;;6.83;;
47287;SDS011;33020;53.008;13.558;2023-03-02T06:57:22;11.47;;;5.67;;
47287;SDS011;33020;53.008;13.558;2023-03-02T06:59:49;12.80;;;6.63;;
47287;SDS011;33020;53.008;13.558;2023-03-02T07:02:16;11.43;;;5.97;;
47287;SDS011;33020;53.008;13.558;2023-03-02T07:04:42;12.30;;;6.37;;
47287;SDS011;33020;53.008;13.558;2023-03-02T07:07:12;12.70;;;6.30;;
47287;SDS011;33020;53.008;13.558;2023-03-02T07:09:38;13.57;;;6.10;;
47287;SDS011;33020;53.008;13.558;2023-03-02T07:12:05;13.07;;;6.33;;
47287;SDS011;33020;53.008;13.558;2023-03-02T07:14:33;13.87;;;5.90;;
47287;SDS011;33020;53.008;13.558;2023-03-02T07:17:03;15.40;;;6.70;;
47287;SDS011;33020;53.008;13.558;2023-03-02T07:19:30;15.07;;;6.87;;
47287;SDS011;33020;53.008;13.558;2023-03-02T07:21:57;11.60;;;5.77;;
47287;SDS011;33020;53.008;13.558;2023-03-02T07:24:23;14.27;;;6.77;;
47287;SDS011;33020;53.008;13.558;2023-03-02T07:26:50;15.63;;;6.07;;
47287;SDS011;33020;53.008;13.558;2023-03-02T07:29:17;9.87;;;5.43;;
47287;SDS011;33020;53.008;13.558;2023-03-02T07:31:43;11.90;;;5.80;;
47287;SDS011;33020;53.008;13.558;2023-03-02T07:34:10;10.33;;;5.43;;
47287;SDS011;33020;53.008;13.558;2023-03-02T07:36:37;9.27;;;4.93;;
47287;SDS011;33020;53.008;13.558;2023-03-02T07:39:03;11.10;;;5.20;;
47287;SDS011;33020;53.008;13.558;2023-03-02T07:41:30;12.07;;;4.87;;
47287;SDS011;33020;53.008;13.558;2023-03-02T07:43:57;11.10;;;5.20;;
47287;SDS011;33020;53.008;13.558;2023-03-02T07:46:24;10.13;;;5.17;;
47287;SDS011;33020;53.008;13.558;2023-03-02T07:48:51;11.20;;;5.27;;
47287;SDS011;33020;53.008;13.558;2023-03-02T07:51:19;10.60;;;5.07;;
47287;SDS011;33020;53.008;13.558;2023-03-02T07:53:45;10.23;;;5.27;;
47287;SDS011;33020;53.008;13.558;2023-03-02T07:56:12;11.10;;;5.27;;
47287;SDS011;33020;53.008;13.558;2023-03-02T07:58:39;9.63;;;4.97;;
47287;SDS011;33020;53.008;13.558;2023-03-02T08:01:05;9.43;;;5.23;;
47287;SDS011;33020;53.008;13.558;2023-03-02T08:03:32;7.13;;;4.30;;
47287;SDS011;33020;53.008;13.558;2023-03-02T08:06:03;11.63;;;4.37;;
47287;SDS011;33020;53.008;13.558;2023-03-02T08:08:36;9.87;;;4.60;;
47287;SDS011;33020;53.008;13.558;2023-03-02T08:11:04;9.63;;;4.33;;
47287;SDS011;33020;53.008;13.558;2023-03-02T08:13:35;8.60;;;4.70;;
47287;SDS011;33020;53.008;13.558;2023-03-02T08:16:02;7.60;;;3.57;;
47287;SDS011;33020;53.008;13.558;2023-03-02T08:18:31;8.20;;;4.27;;
47287;SDS011;33020;53.008;13.558;2023-03-02T08:20:58;10.13;;;4.53;;
47287;SDS011;33020;53.008;13.558;2023-03-02T08:23:25;10.20;;;5.30;;
47287;SDS011;33020;53.008;13.558;2023-03-02T08:25:52;7.63;;;4.43;;
47287;SDS011;33020;53.008;13.558;2023-03-02T08:28:20;8.17;;;4.20;;
47287;SDS011;33020;53.008;13.558;2023-03-02T08:30:54;9.07;;;4.83;;
47287;SDS011;33020;53.008;13.558;2023-03-02T08:33:22;8.53;;;3.93;;
47287;SDS011;33020;53.008;13.558;2023-03-02T08:35:55;7.13;;;4.23;;
47287;SDS011;33020;53.008;13.558;2023-03-02T08:38:26;10.77;;;4.87;;
47287;SDS011;33020;53.008;13.558;2023-03-02T08:40:53;8.83;;;5.10;;
47287;SDS011;33020;53.008;13.558;2023-03-02T08:43:20;8.80;;;5.13;;
47287;SDS011;33020;53.008;13.558;2023-03-02T08:45:49;10.80;;;5.27;;
47287;SDS011;33020;53.008;13.558;2023-03-02T08:48:18;7.93;;;4.40;;
47287;SDS011;33020;53.008;13.558;2023-03-02T08:50:52;9.50;;;4.77;;
47287;SDS011;33020;53.008;13.558;2023-03-02T08:53:26;7.13;;;3.57;;
47287;SDS011;33020;53.008;13.558;2023-03-02T08:55:54;8.40;;;4.40;;
47287;SDS011;33020;53.008;13.558;2023-03-02T08:58:21;10.43;;;5.37;;
47287;SDS011;33020;53.008;13.558;2023-03-02T09:00:48;9.37;;;4.27;;
47287;SDS011;33020;53.008;13.558;2023-03-02T09:03:14;7.00;;;4.10;;
47287;SDS011;33020;53.008;13.558;2023-03-02T09:05:41;6.53;;;4.30;;
47287;SDS011;33020;53.008;13.558;2023-03-02T09:08:08;8.37;;;4.03;;
47287;SDS011;33020;53.008;13.558;2023-03-02T09:10:35;8.53;;;4.37;;
47287;SDS011;33020;53.008;13.558;2023-03-02T09:13:02;8.10;;;4.23;;
47287;SDS011;33020;53.008;13.558;2023-03-02T09:15:29;7.67;;;3.93;;
47287;SDS011;33020;53.008;13.558;2023-03-02T09:17:55;6.40;;;3.80;;
47287;SDS011;33020;53.008;13.558;2023-03-02T09:20:22;7.33;;;3.50;;
47287;SDS011;33020;53.008;13.558;2023-03-02T09:22:49;6.73;;;3.70;;
47287;SDS011;33020;53.008;13.558;2023-03-02T09:25:17;9.10;;;4.63;;
47287;SDS011;33020;53.008;13.558;2023-03-02T09:27:44;8.80;;;4.27;;
47287;SDS011;33020;53.008;13.558;2023-03-02T09:30:12;7.00;;;3.97;;
47287;SDS011;33020;53.008;13.558;2023-03-02T09:32:39;8.00;;;4.33;;
47287;SDS011;33020;53.008;13.558;2023-03-02T09:35:06;8.40;;;4.20;;
47287;SDS011;33020;53.008;13.558;2023-03-02T09:37:33;9.33;;;4.20;;
47287;SDS011;33020;53.008;13.558;2023-03-02T09:40:03;6.50;;;3.67;;
47287;SDS011;33020;53.008;13.558;2023-03-02T09:43:04;7.97;;;4.43;;
47287;SDS011;33020;53.008;13.558;2023-03-02T09:51:06;8.50;;;4.53;;
47287;SDS011;33020;53.008;13.558;2023-03-02T09:53:43;6.20;;;3.40;;
47287;SDS011;33020;53.008;13.558;2023-03-02T09:56:15;7.50;;;4.50;;
47287;SDS011;33020;53.008;13.558;2023-03-02T09:58:47;7.00;;;3.87;;
47287;SDS011;33020;53.008;13.558;2023-03-02T10:01:20;7.77;;;4.53;;
47287;SDS011;33020;53.008;13.558;2023-03-02T10:07:11;7.27;;;3.93;;
47287;SDS011;33020;53.008;13.558;2023-03-02T10:09:38;8.63;;;4.53;;
47287;SDS011;33020;53.008;13.558;2023-03-02T10:14:51;7.80;;;4.43;;
47287;SDS011;33020;53.008;13.558;2023-03-02T10:17:33;9.57;;;3.87;;
47287;SDS011;33020;53.008;13.558;2023-03-02T10:20:03;7.30;;;3.97;;
47287;SDS011;33020;53.008;13.558;2023-03-02T10:22:36;6.90;;;3.23;;
47287;SDS011;33020;53.008;13.558;2023-03-02T10:28:04;9.67;;;5.20;;
47287;SDS011;33020;53.008;13.558;2023-03-02T10:30:39;9.63;;;4.13;;
47287;SDS011;33020;53.008;13.558;2023-03-02T10:33:14;6.20;;;3.60;;
47287;SDS011;33020;53.008;13.558;2023-03-02T10:35:46;8.27;;;3.80;;
47287;SDS011;33020;53.008;13.558;2023-03-02T10:38:16;10.53;;;4.87;;
47287;SDS011;33020;53.008;13.558;2023-03-02T10:40:56;7.23;;;3.83;;
47287;SDS011;33020;53.008;13.558;2023-03-02T10:43:36;5.10;;;3.03;;
47287;SDS011;33020;53.008;13.558;2023-03-02T10:46:07;6.23;;;3.50;;
47287;SDS011;33020;53.008;13.558;2023-03-02T10:48:49;6.93;;;3.57;;
47287;SDS011;33020;53.008;13.558;2023-03-02T10:51:35;14.67;;;8.40;;
47287;SDS011;33020;53.008;13.558;2023-03-02T10:56:35;8.83;;;4.10;;
47287;SDS011;33020;53.008;13.558;2023-03-02T10:59:12;5.97;;;3.67;;
47287;SDS011;33020;53.008;13.558;2023-03-02T11:04:52;8.93;;;6.07;;
47287;SDS011;33020;53.008;13.558;2023-03-02T11:07:25;8.23;;;4.67;;
47287;SDS011;33020;53.008;13.558;2023-03-02T11:10:00;7.43;;;3.83;;
47287;SDS011;33020;53.008;13.558;2023-03-02T11:12:29;7.67;;;3.90;;
47287;SDS011;33020;53.008;13.558;2023-03-02T11:17:50;6.83;;;3.67;;
47287;SDS011;33020;53.008;13.558;2023-03-02T11:20:21;5.77;;;3.57;;
47287;SDS011;33020;53.008;13.558;2023-03-02T11:22:52;6.93;;;3.40;;
47287;SDS011;33020;53.008;13.558;2023-03-02T11:30:59;6.07;;;3.17;;
47287;SDS011;33020;53.008;13.558;2023-03-02T11:33:29;7.53;;;3.43;;
47287;SDS011;33020;53.008;13.558;2023-03-02T11:38:40;7.17;;;3.50;;
47287;SDS011;33020;53.008;13.558;2023-03-02T11:41:16;7.23;;;3.33;;
47287;SDS011;33020;53.008;13.558;2023-03-02T11:43:45;7.57;;;3.73;;
47287;SDS011;33020;53.008;13.558;2023-03-02T11:46:13;8.33;;;4.17;;
47287;SDS011;33020;53.008;13.558;2023-03-02T11:48:49;6.20;;;3.67;;
47287;SDS011;33020;53.008;13.558;2023-03-02T11:51:26;7.20;;;3.90;;
47287;SDS011;33020;53.008;13.558;2023-03-02T11:56:23;8.43;;;4.00;;
47287;SDS011;33020;53.008;13.558;2023-03-02T11:58:54;5.93;;;3.40;;
47287;SDS011;33020;53.008;13.558;2023-03-02T12:01:24;6.87;;;3.60;;
47287;SDS011;33020;53.008;13.558;2023-03-02T12:03:52;5.70;;;3.43;;
47287;SDS011;33020;53.008;13.558;2023-03-02T12:08:47;6.37;;;3.70;;
47287;SDS011;33020;53.008;13.558;2023-03-02T12:13:42;6.83;;;4.00;;
47287;SDS011;33020;53.008;13.558;2023-03-02T12:18:48;9.13;;;4.37;;
47287;SDS011;33020;53.008;13.558;2023-03-02T12:21:17;7.57;;;3.87;;
47287;SDS011;33020;53.008;13.558;2023-03-02T12:31:38;8.67;;;4.20;;
47287;SDS011;33020;53.008;13.558;2023-03-02T12:43:13;5.20;;;3.50;;
47287;SDS011;33020;53.008;13.558;2023-03-02T12:48:44;7.37;;;3.97;;
47287;SDS011;33020;53.008;13.558;2023-03-02T12:51:21;7.30;;;3.83;;
47287;SDS011;33020;53.008;13.558;2023-03-02T12:54:03;6.93;;;4.00;;
47287;SDS011;33020;53.008;13.558;2023-03-02T12:56:38;8.77;;;4.67;;
47287;SDS011;33020;53.008;13.558;2023-03-02T12:59:05;7.63;;;4.00;;
47287;SDS011;33020;53.008;13.558;2023-03-02T13:01:32;6.53;;;3.53;;
47287;SDS011;33020;53.008;13.558;2023-03-02T13:03:59;5.60;;;3.40;;
47287;SDS011;33020;53.008;13.558;2023-03-02T13:06:26;8.47;;;4.80;;
47287;SDS011;33020;53.008;13.558;2023-03-02T13:08:57;5.93;;;4.07;;
47287;SDS011;33020;53.008;13.558;2023-03-02T13:11:32;6.20;;;3.50;;
47287;SDS011;33020;53.008;13.558;2023-03-02T13:14:00;9.07;;;4.13;;
47287;SDS011;33020;53.008;13.558;2023-03-02T13:16:31;7.23;;;4.47;;
47287;SDS011;33020;53.008;13.558;2023-03-02T13:19:01;5.70;;;3.30;;
47287;SDS011;33020;53.008;13.558;2023-03-02T13:27:16;7.13;;;3.47;;
47287;SDS011;33020;53.008;13.558;2023-03-02T13:29:45;5.77;;;3.27;;
47287;SDS011;33020;53.008;13.558;2023-03-02T13:32:20;7.83;;;3.80;;
47287;SDS011;33020;53.008;13.558;2023-03-02T13:34:50;7.00;;;3.70;;
47287;SDS011;33020;53.008;13.558;2023-03-02T13:37:22;7.53;;;3.90;;
47287;SDS011;33020;53.008;13.558;2023-03-02T13:39:56;7.83;;;4.17;;
47287;SDS011;33020;53.008;13.558;2023-03-02T13:42:26;6.77;;;3.47;;
47287;SDS011;33020;53.008;13.558;2023-03-02T13:44:54;8.17;;;4.33;;
47287;SDS011;33020;53.008;13.558;2023-03-02T13:47:22;7.73;;;4.30;;
47287;SDS011;33020;53.008;13.558;2023-03-02T13:49:50;5.50;;;3.27;;
47287;SDS011;33020;53.008;13.558;2023-03-02T13:54:54;6.70;;;3.47;;
47287;SDS011;33020;53.008;13.558;2023-03-02T13:57:24;8.47;;;4.53;;
47287;SDS011;33020;53.008;13.558;2023-03-02T13:59:57;6.97;;;3.70;;
47287;SDS011;33020;53.008;13.558;2023-03-02T14:02:28;6.37;;;3.30;;
47287;SDS011;33020;53.008;13.558;2023-03-02T14:04:55;7.00;;;3.63;;
47287;SDS011;33020;53.008;13.558;2023-03-02T14:07:22;7.60;;;3.63;;
47287;SDS011;33020;53.008;13.558;2023-03-02T14:09:49;9.60;;;4.10;;
47287;SDS011;33020;53.008;13.558;2023-03-02T14:12:29;7.57;;;4.50;;
47287;SDS011;33020;53.008;13.558;2023-03-02T14:14:57;8.33;;;3.77;;
47287;SDS011;33020;53.008;13.558;2023-03-02T14:17:26;9.97;;;4.80;;
47287;SDS011;33020;53.008;13.558;2023-03-02T14:19:53;7.53;;;3.90;;
47287;SDS011;33020;53.008;13.558;2023-03-02T14:22:21;7.37;;;4.47;;
47287;SDS011;33020;53.008;13.558;2023-03-02T14:24:48;7.77;;;4.90;;
47287;SDS011;33020;53.008;13.558;2023-03-02T14:27:15;9.63;;;4.57;;
47287;SDS011;33020;53.008;13.558;2023-03-02T14:29:43;8.47;;;4.80;;
47287;SDS011;33020;53.008;13.558;2023-03-02T14:32:11;8.97;;;4.60;;
47287;SDS011;33020;53.008;13.558;2023-03-02T14:34:39;9.97;;;5.60;;
47287;SDS011;33020;53.008;13.558;2023-03-02T14:37:10;9.53;;;4.93;;
47287;SDS011;33020;53.008;13.558;2023-03-02T14:39:42;10.97;;;5.30;;
47287;SDS011;33020;53.008;13.558;2023-03-02T14:42:13;10.00;;;5.07;;
47287;SDS011;33020;53.008;13.558;2023-03-02T14:44:41;7.10;;;4.57;;
47287;SDS011;33020;53.008;13.558;2023-03-02T14:47:08;9.47;;;5.47;;
47287;SDS011;33020;53.008;13.558;2023-03-02T14:49:36;8.20;;;4.70;;
47287;SDS011;33020;53.008;13.558;2023-03-02T14:54:39;9.07;;;5.13;;
47287;SDS011;33020;53.008;13.558;2023-03-02T14:57:12;11.60;;;6.20;;
47287;SDS011;33020;53.008;13.558;2023-03-02T14:59:42;10.93;;;5.72;;
47287;SDS011;33020;53.008;13.558;2023-03-02T15:02:09;9.53;;;4.43;;
47287;SDS011;33020;53.008;13.558;2023-03-02T15:04:50;10.17;;;5.10;;
47287;SDS011;33020;53.008;13.558;2023-03-02T15:07:22;9.77;;;5.23;;
47287;SDS011;33020;53.008;13.558;2023-03-02T15:09:49;9.63;;;5.60;;
47287;SDS011;33020;53.008;13.558;2023-03-02T15:12:16;12.20;;;5.90;;
47287;SDS011;33020;53.008;13.558;2023-03-02T15:14:42;10.37;;;5.63;;
47287;SDS011;33020;53.008;13.558;2023-03-02T15:17:09;10.10;;;6.10;;
47287;SDS011;33020;53.008;13.558;2023-03-02T15:19:36;9.60;;;5.37;;
47287;SDS011;33020;53.008;13.558;2023-03-02T15:22:03;12.53;;;6.20;;
47287;SDS011;33020;53.008;13.558;2023-03-02T15:24:29;12.33;;;5.80;;
47287;SDS011;33020;53.008;13.558;2023-03-02T15:26:59;12.07;;;5.97;;
47287;SDS011;33020;53.008;13.558;2023-03-02T15:29:25;12.00;;;6.07;;
47287;SDS011;33020;53.008;13.558;2023-03-02T15:31:52;11.20;;;6.17;;
47287;SDS011;33020;53.008;13.558;2023-03-02T15:34:19;12.63;;;5.60;;
47287;SDS011;33020;53.008;13.558;2023-03-02T15:36:46;11.83;;;5.87;;
47287;SDS011;33020;53.008;13.558;2023-03-02T15:39:12;11.70;;;5.47;;
47287;SDS011;33020;53.008;13.558;2023-03-02T15:41:40;10.13;;;5.83;;
47287;SDS011;33020;53.008;13.558;2023-03-02T15:44:16;13.10;;;5.63;;
47287;SDS011;33020;53.008;13.558;2023-03-02T15:46:47;13.33;;;6.30;;
47287;SDS011;33020;53.008;13.558;2023-03-02T15:49:15;10.43;;;5.63;;
47287;SDS011;33020;53.008;13.558;2023-03-02T15:51:42;13.20;;;5.67;;
47287;SDS011;33020;53.008;13.558;2023-03-02T15:54:08;11.33;;;5.10;;
47287;SDS011;33020;53.008;13.558;2023-03-02T15:56:37;8.83;;;4.90;;